Time;durP1;ratioP1;P1;durP2;ratioP2;P2;SDS_P1;SDS_P2;PMS_P1;PMS_P2;Temp;Humidity;BMP_temperature;BMP_pressure;BME280_temperature;BME280_humidity;BME280_pressure;Samples;Min_cycle;Max_cycle;Signal;HPM_P1;HPM_P2
2022/08/03 00:02:18;;;;;;;6.07;2.67;;;21.90;59.90;;;;;;5026816;28;21030;-74
2022/08/03 00:04:46;;;;;;;4.30;2.43;;;21.90;60.00;;;;;;5027272;28;20936;-74
2022/08/03 00:07:16;;;;;;;6.63;2.80;;;21.90;60.10;;;;;;5030272;28;20889;-74
2022/08/03 00:10:05;;;;;;;5.13;2.67;;;21.90;60.20;;;;;;5027094;28;20475;-74
2022/08/03 00:12:35;;;;;;;5.90;2.93;;;21.90;60.20;;;;;;5018968;28;20475;-74
2022/08/03 00:15:03;;;;;;;5.80;2.97;;;21.90;60.20;;;;;;5027210;28;20488;-74
2022/08/03 00:17:42;;;;;;;7.13;2.60;;;21.90;60.30;;;;;;5025871;28;20460;-74
2022/08/03 00:20:20;;;;;;;6.40;2.90;;;21.90;60.30;;;;;;5025906;28;20482;-74
2022/08/03 00:22:50;;;;;;;4.83;2.63;;;21.90;60.40;;;;;;5025291;28;20836;-74
2022/08/03 00:25:19;;;;;;;5.43;3.33;;;21.90;60.40;;;;;;5024380;28;20562;-74
2022/08/03 00:27:46;;;;;;;4.77;2.20;;;21.80;60.50;;;;;;5025382;28;20979;-74
2022/08/03 00:30:17;;;;;;;5.87;3.37;;;21.80;60.50;;;;;;5026305;28;20566;-74
2022/08/03 00:32:44;;;;;;;7.53;3.10;;;21.70;60.50;;;;;;5025704;28;20964;-73
2022/08/03 00:35:12;;;;;;;4.83;3.07;;;21.60;60.80;;;;;;5024413;28;20978;-74
2022/08/03 00:38:02;;;;;;;8.33;2.90;;;21.50;60.90;;;;;;5025742;28;20546;-74
2022/08/03 00:40:30;;;;;;;6.00;2.90;;;21.50;61.00;;;;;;5026253;28;20488;-73
2022/08/03 00:42:59;;;;;;;5.40;3.10;;;21.50;61.10;;;;;;5024589;28;20460;-74
2022/08/03 00:45:29;;;;;;;5.20;3.20;;;21.40;61.10;;;;;;5025215;28;20499;-74
2022/08/03 00:47:58;;;;;;;5.27;2.63;;;21.40;61.10;;;;;;5026975;28;20456;-74
2022/08/03 00:50:28;;;;;;;4.87;3.00;;;21.40;61.10;;;;;;5026482;28;20480;-74
2022/08/03 00:52:58;;;;;;;6.93;3.20;;;21.30;61.00;;;;;;5026456;28;20456;-75
2022/08/03 00:55:27;;;;;;;5.30;3.03;;;21.20;61.00;;;;;;5025631;28;21085;-74
2022/08/03 00:57:55;;;;;;;6.13;3.60;;;21.10;61.10;;;;;;5013986;28;20456;-74
2022/08/03 01:00:25;;;;;;;4.80;2.80;;;21.00;61.30;;;;;;5026952;28;20470;-74
2022/08/03 01:02:54;;;;;;;5.87;3.20;;;21.00;61.30;;;;;;5020744;28;20531;-74
2022/08/03 01:05:22;;;;;;;5.27;3.10;;;20.90;61.50;;;;;;5024348;28;20500;-74
2022/08/03 01:08:03;;;;;;;5.50;2.93;;;20.90;61.60;;;;;;5024136;28;20456;-74
2022/08/03 01:10:39;;;;;;;7.97;3.17;;;20.90;61.80;;;;;;5011595;28;20490;-74
2022/08/03 01:13:21;;;;;;;6.17;3.53;;;20.90;61.80;;;;;;4999895;28;20959;-74
2022/08/03 01:16:13;;;;;;;5.17;3.10;;;20.90;61.80;;;;;;5013618;28;20480;-74
2022/08/03 01:18:47;;;;;;;5.40;3.27;;;20.90;61.90;;;;;;5025645;28;20982;-74
2022/08/03 01:21:26;;;;;;;5.73;3.43;;;20.80;62.00;;;;;;5025246;28;20795;-74
2022/08/03 01:24:04;;;;;;;5.33;3.17;;;20.80;62.00;;;;;;5024188;28;20465;-75
2022/08/03 01:26:55;;;;;;;6.27;3.23;;;20.80;62.10;;;;;;5028506;28;20851;-74
2022/08/03 01:29:52;;;;;;;6.07;3.00;;;20.80;62.10;;;;;;5023959;28;20486;-74
2022/08/03 01:32:21;;;;;;;5.37;3.10;;;20.80;62.10;;;;;;5024673;28;20473;-74
2022/08/03 01:35:12;;;;;;;6.57;2.83;;;20.80;62.20;;;;;;5026671;28;20521;-74
2022/08/03 01:37:45;;;;;;;6.40;3.70;;;20.80;62.20;;;;;;5031591;28;20466;-74
2022/08/03 01:40:14;;;;;;;5.73;3.30;;;20.80;62.30;;;;;;5026999;28;20538;-74
2022/08/03 01:42:44;;;;;;;4.97;3.00;;;20.90;62.30;;;;;;5023441;28;20934;-74
2022/08/03 01:45:16;;;;;;;6.47;3.30;;;20.90;62.20;;;;;;5008798;28;20838;-74
2022/08/03 01:47:46;;;;;;;5.70;3.17;;;20.90;62.20;;;;;;5022179;28;20455;-74
2022/08/03 01:50:16;;;;;;;4.97;3.20;;;20.80;62.20;;;;;;5023457;28;20499;-74
2022/08/03 01:52:46;;;;;;;4.90;3.10;;;20.80;62.30;;;;;;5031689;28;20451;-74
2022/08/03 01:55:19;;;;;;;6.03;3.10;;;20.80;62.40;;;;;;5022417;28;20490;-75
2022/08/03 01:57:49;;;;;;;9.10;3.40;;;20.80;62.40;;;;;;5030243;28;20485;-74
2022/08/03 02:00:36;;;;;;;5.70;3.53;;;20.80;62.40;;;;;;5009628;28;20970;-73
2022/08/03 02:03:05;;;;;;;5.20;3.30;;;20.80;62.40;;;;;;5024583;28;22047;-74
2022/08/03 02:05:35;;;;;;;5.20;3.30;;;20.80;62.50;;;;;;5014010;28;21082;-74
2022/08/03 02:08:05;;;;;;;6.13;3.37;;;20.80;62.50;;;;;;5024506;28;20460;-74
2022/08/03 02:10:35;;;;;;;5.53;3.20;;;20.80;62.50;;;;;;5023209;28;20495;-74
2022/08/03 02:13:07;;;;;;;7.07;4.03;;;20.70;62.50;;;;;;5021664;28;20479;-74
2022/08/03 02:15:37;;;;;;;5.00;3.33;;;20.60;62.50;;;;;;5022388;28;21008;-74
2022/08/03 02:18:09;;;;;;;5.80;3.80;;;20.60;62.70;;;;;;5015032;28;20462;-73
2022/08/03 02:20:38;;;;;;;5.83;3.70;;;20.50;62.80;;;;;;5023821;28;20487;-74
2022/08/03 02:23:07;;;;;;;5.10;3.17;;;20.50;62.90;;;;;;5022266;28;20459;-74
2022/08/03 02:25:41;;;;;;;5.20;3.60;;;20.40;63.00;;;;;;5021754;28;20845;-74
2022/08/03 02:28:14;;;;;;;6.33;3.70;;;20.40;63.00;;;;;;5023372;28;20978;-74
2022/08/03 02:30:47;;;;;;;8.03;3.40;;;20.40;63.00;;;;;;5024052;28;20497;-74
2022/08/03 02:33:24;;;;;;;5.73;3.73;;;20.30;63.10;;;;;;5023379;28;20508;-74
2022/08/03 02:35:54;;;;;;;6.67;3.77;;;20.30;63.10;;;;;;5023404;28;20844;-73
2022/08/03 02:38:27;;;;;;;6.50;3.87;;;20.30;63.10;;;;;;5024970;28;20455;-74
2022/08/03 02:40:57;;;;;;;5.27;3.40;;;20.30;63.10;;;;;;5023715;28;20482;-74
2022/08/03 02:43:26;;;;;;;5.67;3.27;;;20.20;63.10;;;;;;5030320;28;20471;-74
2022/08/03 02:46:09;;;;;;;6.60;2.90;;;20.20;63.10;;;;;;5021084;28;21078;-74
2022/08/03 02:48:41;;;;;;;6.70;3.37;;;20.20;63.30;;;;;;5022342;28;20856;-74
2022/08/03 02:51:09;;;;;;;7.70;3.80;;;20.10;63.30;;;;;;5021983;28;20489;-74
2022/08/03 02:53:38;;;;;;;5.90;3.60;;;20.10;63.40;;;;;;5017642;28;20853;-75
2022/08/03 02:56:08;;;;;;;6.33;3.90;;;20.10;63.60;;;;;;5027897;28;20490;-74
2022/08/03 02:58:38;;;;;;;6.20;3.77;;;20.10;63.50;;;;;;5026551;28;20474;-74
2022/08/03 03:01:08;;;;;;;7.87;3.67;;;20.00;63.50;;;;;;5027027;28;21014;-74
2022/08/03 03:03:37;;;;;;;5.40;3.83;;;20.00;63.60;;;;;;5032354;28;20474;-74
2022/08/03 03:06:13;;;;;;;6.60;3.77;;;19.90;63.70;;;;;;5010017;28;21369;-74
2022/08/03 03:08:42;;;;;;;5.27;3.40;;;19.90;63.80;;;;;;5028806;28;20494;-74
2022/08/03 03:11:11;;;;;;;5.77;3.50;;;19.90;63.90;;;;;;5006387;28;20491;-74
2022/08/03 03:13:41;;;;;;;6.40;4.00;;;19.90;64.00;;;;;;5020968;28;20464;-74
2022/08/03 03:16:13;;;;;;;7.33;3.53;;;19.90;64.00;;;;;;5028508;28;20477;-74
2022/08/03 03:18:43;;;;;;;7.13;3.63;;;19.90;64.00;;;;;;5027923;28;20829;-74
2022/08/03 03:21:11;;;;;;;6.10;4.10;;;19.90;64.00;;;;;;5027199;28;21009;-74
2022/08/03 03:23:41;;;;;;;5.93;3.53;;;19.80;64.00;;;;;;5014751;28;20992;-74
2022/08/03 03:26:09;;;;;;;9.07;4.17;;;19.80;64.20;;;;;;5028302;28;20812;-73
2022/08/03 03:28:37;;;;;;;5.53;3.53;;;19.80;64.20;;;;;;5028508;28;20468;-74
2022/08/03 03:31:06;;;;;;;5.90;4.10;;;19.80;64.20;;;;;;5024723;28;20497;-74
2022/08/03 03:33:37;;;;;;;5.57;3.67;;;19.80;64.20;;;;;;5023592;28;20478;-74
2022/08/03 03:36:06;;;;;;;6.77;4.13;;;19.80;64.30;;;;;;5026377;28;20543;-74
2022/08/03 03:38:34;;;;;;;11.80;3.73;;;19.80;64.40;;;;;;5026097;28;20464;-74
2022/08/03 03:41:04;;;;;;;6.00;3.70;;;19.80;64.50;;;;;;5025988;28;21053;-74
2022/08/03 03:43:32;;;;;;;6.00;3.87;;;19.80;64.50;;;;;;5032337;28;20462;-74
2022/08/03 03:46:01;;;;;;;7.17;4.00;;;19.80;64.60;;;;;;5023475;28;20492;-74
2022/08/03 03:48:29;;;;;;;6.90;4.00;;;19.80;64.50;;;;;;5024611;28;20478;-73
2022/08/03 03:51:00;;;;;;;8.63;4.40;;;19.80;64.40;;;;;;5014406;28;20803;-74
2022/08/03 03:53:28;;;;;;;7.10;4.30;;;19.70;64.40;;;;;;5015715;28;20462;-74
2022/08/03 03:55:57;;;;;;;5.30;3.40;;;19.70;64.40;;;;;;5022804;28;20484;-74
2022/08/03 03:58:30;;;;;;;5.70;3.70;;;19.60;64.40;;;;;;5028423;28;20549;-74
2022/08/03 04:00:58;;;;;;;7.53;4.20;;;19.60;64.40;;;;;;5025333;28;21030;-74
2022/08/03 04:03:26;;;;;;;7.70;4.10;;;19.60;64.40;;;;;;5026027;28;20454;-74
2022/08/03 04:11:45;;;;;;;6.10;4.10;;;19.50;64.70;;;;;;5025352;28;20805;-73
2022/08/03 04:14:17;;;;;;;6.00;3.93;;;19.40;64.80;;;;;;5026053;28;20454;-74
2022/08/03 04:16:49;;;;;;;6.10;3.70;;;19.40;64.90;;;;;;5027105;28;20479;-73
2022/08/03 04:19:20;;;;;;;7.10;4.70;;;19.40;64.90;;;;;;5026861;28;20485;-74
2022/08/03 04:21:52;;;;;;;6.90;4.60;;;19.40;65.00;;;;;;5028085;28;20510;-73
2022/08/03 04:24:30;;;;;;;6.60;4.27;;;19.40;65.20;;;;;;5029687;28;20470;-73
2022/08/03 04:27:00;;;;;;;6.10;3.97;;;19.40;65.10;;;;;;5030731;28;20458;-74
2022/08/03 04:29:29;;;;;;;8.27;4.10;;;19.40;65.10;;;;;;5029691;28;20489;-75
2022/08/03 04:31:59;;;;;;;6.90;4.50;;;19.40;65.30;;;;;;5030998;28;20475;-74
2022/08/03 04:34:30;;;;;;;6.20;4.13;;;19.40;65.40;;;;;;5030387;28;20466;-74
2022/08/03 04:37:00;;;;;;;6.80;3.70;;;19.40;65.50;;;;;;5035737;28;20868;-74
2022/08/03 04:39:32;;;;;;;7.70;4.60;;;19.40;65.50;;;;;;5030961;28;20552;-79
2022/08/03 04:42:04;;;;;;;7.77;4.17;;;19.50;65.60;;;;;;5026005;28;20465;-76
2022/08/03 04:44:46;;;;;;;7.27;5.50;;;19.50;65.60;;;;;;5023856;28;20476;-79
2022/08/03 04:47:14;;;;;;;9.83;5.80;;;19.50;65.60;;;;;;5024753;28;20499;-76
2022/08/03 04:49:43;;;;;;;6.13;3.40;;;19.60;65.60;;;;;;5018738;28;20498;-76
2022/08/03 04:52:11;;;;;;;6.83;4.60;;;19.60;65.80;;;;;;5020797;28;20945;-76
2022/08/03 04:54:41;;;;;;;8.23;4.07;;;19.70;65.90;;;;;;5023387;28;20458;-76
2022/08/03 04:57:17;;;;;;;5.60;3.80;;;19.80;66.00;;;;;;5023252;28;20493;-76
2022/08/03 04:59:53;;;;;;;5.67;3.70;;;20.00;66.10;;;;;;5024150;28;20485;-76
2022/08/03 05:02:29;;;;;;;10.43;4.50;;;20.20;66.20;;;;;;5013769;28;20486;-76
2022/08/03 05:04:57;;;;;;;6.23;4.03;;;20.40;66.00;;;;;;5026092;28;20450;-76
2022/08/03 05:07:25;;;;;;;9.50;4.30;;;20.50;65.80;;;;;;5026843;28;20458;-76
2022/08/03 05:10:06;;;;;;;7.30;4.70;;;20.70;65.70;;;;;;5025948;28;21102;-76
2022/08/03 05:12:44;;;;;;;7.17;4.10;;;20.90;65.60;;;;;;5026390;28;20462;-76
2022/08/03 05:15:12;;;;;;;5.63;3.60;;;21.00;65.40;;;;;;5026012;28;20444;-76
2022/08/03 05:17:41;;;;;;;7.60;4.50;;;21.10;65.50;;;;;;5026734;28;20467;-76
2022/08/03 05:20:10;;;;;;;7.00;4.10;;;21.30;65.90;;;;;;5025303;28;20490;-76
2022/08/03 05:22:38;;;;;;;7.43;3.40;;;21.70;66.30;;;;;;5026144;28;20474;-76
2022/08/03 05:25:08;;;;;;;6.90;3.90;;;22.20;66.20;;;;;;5025384;28;20467;-76
2022/08/03 05:27:44;;;;;;;9.63;4.03;;;23.20;64.80;;;;;;5025461;28;20453;-76
2022/08/03 05:30:12;;;;;;;9.80;4.80;;;24.40;62.70;;;;;;5027799;28;20490;-77
2022/08/03 05:33:00;;;;;;;6.17;4.10;;;25.50;60.70;;;;;;5025111;28;20465;-76
2022/08/03 05:35:28;;;;;;;6.63;3.90;;;26.60;58.90;;;;;;5017610;28;20472;-76
2022/08/03 05:38:16;;;;;;;6.67;4.20;;;27.60;57.60;;;;;;5023376;28;20470;-76
2022/08/03 05:40:52;;;;;;;9.63;3.90;;;28.50;56.50;;;;;;5024643;28;20475;-76
2022/08/03 05:43:24;;;;;;;6.70;4.50;;;29.30;55.40;;;;;;5021147;28;20468;-76
2022/08/03 05:45:53;;;;;;;6.83;4.17;;;30.00;54.40;;;;;;5025472;28;20469;-76
2022/08/03 05:48:40;;;;;;;6.50;4.50;;;30.70;53.70;;;;;;5025666;28;20479;-76
2022/08/03 05:51:09;;;;;;;6.47;4.10;;;31.30;52.80;;;;;;5025799;28;20494;-77
2022/08/03 05:53:38;;;;;;;9.70;3.63;;;31.90;52.00;;;;;;5023016;28;20923;-77
2022/08/03 05:56:08;;;;;;;7.97;4.10;;;32.40;51.20;;;;;;5028383;28;21049;-76
2022/08/03 05:58:43;;;;;;;7.13;4.07;;;32.90;50.60;;;;;;5026743;28;20510;-76
2022/08/03 06:01:11;;;;;;;8.90;4.27;;;33.50;49.90;;;;;;5025451;28;20493;-77
2022/08/03 06:03:40;;;;;;;6.10;3.63;;;34.00;49.10;;;;;;5021403;28;20458;-76
2022/08/03 06:06:07;;;;;;;7.40;3.60;;;34.50;48.30;;;;;;5024866;28;20458;-77
2022/08/03 06:08:35;;;;;;;6.63;3.77;;;35.00;47.40;;;;;;5026396;28;20455;-77
2022/08/03 06:11:04;;;;;;;7.77;3.40;;;35.50;46.60;;;;;;5023543;28;20482;-76
2022/08/03 06:13:33;;;;;;;6.30;4.10;;;35.90;45.80;;;;;;5021739;28;20456;-76
2022/08/03 06:16:01;;;;;;;8.83;3.43;;;36.20;45.10;;;;;;5026013;28;20493;-77
2022/08/03 06:18:29;;;;;;;5.20;3.50;;;35.90;44.10;;;;;;5009338;28;20487;-77
2022/08/03 06:20:57;;;;;;;5.13;3.33;;;34.50;44.10;;;;;;5024137;28;20483;-77
2022/08/03 06:23:43;;;;;;;8.03;3.30;;;32.70;45.00;;;;;;5025344;28;20462;-77
2022/08/03 06:26:27;;;;;;;7.90;3.90;;;30.80;46.50;;;;;;5025166;28;20476;-77
2022/08/03 06:28:56;;;;;;;5.43;3.33;;;29.20;47.90;;;;;;5039842;28;20463;-76
2022/08/03 06:31:28;;;;;;;5.83;3.43;;;28.00;49.30;;;;;;5020702;28;20470;-76
2022/08/03 06:34:01;;;;;;;9.60;3.63;;;27.00;50.60;;;;;;5018212;28;20470;-77
2022/08/03 06:36:50;;;;;;;5.43;3.33;;;26.30;51.70;;;;;;5019880;28;20587;-76
2022/08/03 06:39:19;;;;;;;5.20;3.10;;;25.60;52.80;;;;;;5020409;28;21393;-76
2022/08/03 06:41:51;;;;;;;6.67;3.77;;;25.20;53.70;;;;;;5028621;28;20492;-76
2022/08/03 06:44:20;;;;;;;5.73;3.47;;;24.80;54.40;;;;;;5031579;28;20458;-76
2022/08/03 06:46:49;;;;;;;8.00;3.53;;;24.50;55.00;;;;;;5027836;28;20474;-76
2022/08/03 06:49:17;;;;;;;5.40;3.00;;;24.30;55.50;;;;;;5032898;28;20472;-76
2022/08/03 06:51:46;;;;;;;7.17;3.30;;;24.20;56.00;;;;;;5032066;28;20524;-76
2022/08/03 06:54:35;;;;;;;5.80;3.23;;;24.00;56.60;;;;;;5024679;28;20460;-76
2022/08/03 06:57:04;;;;;;;7.20;2.90;;;23.80;56.80;;;;;;5040063;28;20477;-77
2022/08/03 06:59:33;;;;;;;6.53;3.20;;;23.70;57.10;;;;;;5033862;28;20484;-76
2022/08/03 07:02:21;;;;;;;7.70;3.77;;;23.60;57.50;;;;;;5030784;28;20479;-76
2022/08/03 07:04:49;;;;;;;6.47;2.87;;;23.60;57.60;;;;;;5030384;28;20456;-76
2022/08/03 07:07:18;;;;;;;5.50;3.03;;;23.60;57.80;;;;;;5031324;28;20647;-76
2022/08/03 07:09:46;;;;;;;6.20;3.00;;;23.60;58.00;;;;;;5036499;28;20514;-76
2022/08/03 07:12:26;;;;;;;4.53;2.60;;;23.60;58.20;;;;;;5030468;28;20460;-76
2022/08/03 07:14:56;;;;;;;6.20;3.00;;;23.60;58.40;;;;;;5031744;28;20840;-76
2022/08/03 07:17:29;;;;;;;7.50;3.10;;;23.60;58.60;;;;;;5029758;28;20517;-76
2022/08/03 07:19:58;;;;;;;6.50;2.87;;;23.60;58.70;;;;;;5030486;28;20542;-76
2022/08/03 07:22:26;;;;;;;6.40;2.87;;;23.70;58.80;;;;;;5031035;28;20818;-76
2022/08/03 07:24:54;;;;;;;5.37;3.07;;;23.70;58.90;;;;;;5030698;28;20461;-76
2022/08/03 07:27:22;;;;;;;9.00;3.43;;;23.70;59.00;;;;;;5029377;28;21006;-76
2022/08/03 07:29:50;;;;;;;4.77;2.67;;;23.80;59.00;;;;;;5027326;28;20491;-76
2022/08/03 07:32:19;;;;;;;8.97;2.97;;;23.80;59.10;;;;;;5028978;28;20527;-76
2022/08/03 07:34:47;;;;;;;5.80;2.80;;;23.80;59.10;;;;;;5031156;28;20449;-76
2022/08/03 07:37:15;;;;;;;8.87;2.60;;;23.90;59.20;;;;;;5029888;28;20480;-76
2022/08/03 07:39:43;;;;;;;7.10;3.47;;;23.90;59.20;;;;;;5027297;28;20497;-76
2022/08/03 07:42:11;;;;;;;8.03;3.00;;;24.00;59.30;;;;;;5025123;28;20819;-76
2022/08/03 07:44:39;;;;;;;7.17;3.20;;;24.00;59.30;;;;;;5026993;28;21094;-76
2022/08/03 07:47:07;;;;;;;7.63;3.53;;;24.10;59.20;;;;;;5027711;28;20478;-76
2022/08/03 07:49:41;;;;;;;6.60;2.40;;;24.10;59.20;;;;;;5028038;28;20995;-76
2022/08/03 07:54:55;;;;;;;5.53;3.07;;;24.20;59.30;;;;;;5026754;28;20474;-76
2022/08/03 07:57:23;;;;;;;8.03;2.57;;;24.20;59.20;;;;;;5033960;28;20489;-76
2022/08/03 07:59:51;;;;;;;7.67;3.00;;;24.30;59.20;;;;;;5025527;28;20484;-76
2022/08/03 08:02:38;;;;;;;6.13;2.90;;;24.40;59.20;;;;;;5026224;28;20475;-76
2022/08/03 08:05:09;;;;;;;8.27;2.87;;;24.50;59.10;;;;;;5026487;28;20884;-77
2022/08/03 08:07:38;;;;;;;5.57;2.87;;;24.50;59.10;;;;;;5026489;28;20832;-77
2022/08/03 08:10:07;;;;;;;4.50;2.70;;;24.60;59.10;;;;;;5015489;28;20486;-76
2022/08/03 08:12:35;;;;;;;9.60;3.03;;;24.70;59.00;;;;;;5027152;28;20465;-76
2022/08/03 08:15:04;;;;;;;8.37;3.27;;;24.70;59.00;;;;;;5027812;28;20451;-76
2022/08/03 08:17:40;;;;;;;6.00;2.80;;;24.80;58.90;;;;;;5026516;28;20482;-76
2022/08/03 08:20:12;;;;;;;7.40;3.00;;;24.80;58.80;;;;;;5027294;28;20844;-78
2022/08/03 08:22:44;;;;;;;10.43;2.67;;;24.90;58.60;;;;;;5013713;28;20500;-77
2022/08/03 08:25:13;;;;;;;6.53;3.00;;;25.00;58.40;;;;;;5011739;28;20457;-77
2022/08/03 08:27:47;;;;;;;6.87;2.50;;;25.10;58.40;;;;;;5023478;28;20456;-77
2022/08/03 08:30:35;;;;;;;5.30;2.63;;;25.10;58.30;;;;;;5025248;28;20485;-77
2022/08/03 08:33:03;;;;;;;6.13;2.70;;;25.20;58.30;;;;;;5025899;28;20457;-77
2022/08/03 08:35:33;;;;;;;10.87;2.57;;;25.30;58.20;;;;;;5024915;28;20469;-77
2022/08/03 08:38:01;;;;;;;9.27;3.43;;;25.40;58.10;;;;;;5025781;28;21296;-77
2022/08/03 08:40:32;;;;;;;8.07;2.73;;;25.40;58.10;;;;;;5016125;28;20470;-78
2022/08/03 08:43:02;;;;;;;7.50;2.83;;;25.50;58.00;;;;;;5019813;28;20461;-77
2022/08/03 08:45:30;;;;;;;8.10;3.20;;;25.60;57.90;;;;;;5026116;28;20478;-77
2022/08/03 08:48:02;;;;;;;13.93;2.60;;;25.60;57.60;;;;;;5025166;28;20468;-77
2022/08/03 08:50:38;;;;;;;5.60;2.83;;;25.70;57.40;;;;;;5023347;28;20493;-77
2022/08/03 08:53:07;;;;;;;5.20;2.50;;;25.80;57.30;;;;;;5024017;28;20481;-77
2022/08/03 08:55:46;;;;;;;7.43;2.73;;;25.80;57.20;;;;;;5025204;28;20455;-77
2022/08/03 08:58:30;;;;;;;4.90;2.13;;;25.90;57.10;;;;;;5011491;28;20509;-77
2022/08/03 09:00:58;;;;;;;5.63;2.60;;;26.00;57.10;;;;;;5014973;28;20489;-77
2022/08/03 09:03:28;;;;;;;5.80;2.57;;;26.10;56.90;;;;;;5027203;28;20479;-78
2022/08/03 09:06:00;;;;;;;5.50;2.13;;;26.20;56.70;;;;;;5025206;28;20457;-77
2022/08/03 09:08:29;;;;;;;6.87;2.30;;;26.30;56.60;;;;;;5025616;28;20539;-77
2022/08/03 09:10:57;;;;;;;5.83;2.50;;;26.40;56.40;;;;;;5026330;28;20477;-77
2022/08/03 09:13:25;;;;;;;4.57;2.43;;;26.40;56.30;;;;;;5024893;28;20474;-77
2022/08/03 09:16:09;;;;;;;4.97;2.43;;;26.50;56.30;;;;;;5023953;28;20476;-77
2022/08/03 09:18:38;;;;;;;8.83;2.57;;;26.60;56.10;;;;;;5022684;28;21519;-77
2022/08/03 09:21:21;;;;;;;4.80;2.40;;;26.70;56.00;;;;;;5025806;28;20563;-77
2022/08/03 09:24:06;;;;;;;4.80;2.60;;;26.80;55.80;;;;;;5024132;28;20461;-77
2022/08/03 09:26:52;;;;;;;4.63;2.50;;;26.90;55.50;;;;;;5025438;28;21139;-77
2022/08/03 09:29:21;;;;;;;4.90;2.47;;;27.00;55.30;;;;;;5024444;28;20487;-77
2022/08/03 09:31:49;;;;;;;6.50;2.80;;;27.00;55.20;;;;;;5027953;28;20491;-77
2022/08/03 09:34:18;;;;;;;5.13;2.23;;;27.10;55.10;;;;;;5024600;28;20463;-77
2022/08/03 09:36:49;;;;;;;4.53;2.20;;;27.10;55.00;;;;;;5023667;28;20473;-77
2022/08/03 09:39:18;;;;;;;7.00;2.60;;;27.20;54.90;;;;;;5023287;28;20498;-78
2022/08/03 09:41:48;;;;;;;4.57;2.37;;;27.20;54.90;;;;;;5021540;28;20989;-77
2022/08/03 09:44:16;;;;;;;5.37;2.33;;;27.20;54.90;;;;;;5026141;28;20454;-78
2022/08/03 09:46:54;;;;;;;5.90;2.73;;;27.30;54.90;;;;;;5024177;28;20805;-77
2022/08/03 09:49:23;;;;;;;4.70;2.77;;;27.40;54.60;;;;;;5023243;28;20479;-77
2022/08/03 09:51:52;;;;;;;5.10;2.70;;;27.50;54.50;;;;;;5025790;28;20455;-77
2022/08/03 09:54:42;;;;;;;5.07;2.73;;;27.50;54.30;;;;;;5012182;28;20458;-77
2022/08/03 09:57:22;;;;;;;6.33;2.10;;;27.60;54.10;;;;;;5023060;28;20500;-78
2022/08/03 09:59:50;;;;;;;5.40;2.50;;;27.70;53.80;;;;;;5022906;28;20494;-77
2022/08/03 10:02:39;;;;;;;6.10;2.53;;;27.80;54.00;;;;;;5022266;28;20479;-77
2022/08/03 10:05:10;;;;;;;5.63;3.17;;;27.90;53.70;;;;;;5027928;28;20467;-77
2022/08/03 10:07:49;;;;;;;6.03;2.90;;;27.90;53.60;;;;;;5022446;28;20486;-77
2022/08/03 10:10:18;;;;;;;5.60;2.87;;;28.00;53.50;;;;;;5023675;28;20471;-77
2022/08/03 10:13:00;;;;;;;7.23;2.90;;;28.10;53.30;;;;;;5020399;28;20455;-78
2022/08/03 10:15:28;;;;;;;6.90;2.87;;;28.10;53.20;;;;;;5022831;28;21178;-78
2022/08/03 10:18:16;;;;;;;4.73;2.47;;;28.20;53.10;;;;;;5011003;28;20462;-78
2022/08/03 10:20:49;;;;;;;5.33;2.30;;;28.30;52.90;;;;;;5030676;28;20488;-78
2022/08/03 10:23:19;;;;;;;5.90;2.30;;;28.30;53.00;;;;;;5025710;28;20470;-78
2022/08/03 10:25:49;;;;;;;9.40;2.80;;;28.40;53.00;;;;;;5024672;28;20469;-78
2022/08/03 10:28:19;;;;;;;6.00;2.87;;;28.50;52.90;;;;;;5027011;28;20821;-78
2022/08/03 10:30:50;;;;;;;5.63;2.53;;;28.50;52.80;;;;;;5026719;28;20500;-78
2022/08/03 10:33:20;;;;;;;5.87;2.97;;;28.60;52.80;;;;;;5025936;28;20466;-78
2022/08/03 10:36:08;;;;;;;7.63;3.50;;;28.60;52.70;;;;;;5030085;28;20455;-79
2022/08/03 10:38:44;;;;;;;6.30;2.40;;;28.60;52.70;;;;;;5031326;28;20448;-79
2022/08/03 10:41:13;;;;;;;5.40;3.00;;;28.70;52.60;;;;;;5030513;28;20473;-78
2022/08/03 10:43:48;;;;;;;6.50;2.97;;;28.70;52.50;;;;;;5017839;28;20459;-79
2022/08/03 10:46:17;;;;;;;5.17;2.70;;;28.60;52.50;;;;;;5030191;28;20492;-78
2022/08/03 10:48:47;;;;;;;5.77;3.27;;;28.60;52.30;;;;;;5018577;28;20482;-80
2022/08/03 10:58:48;;;;;;;5.20;2.73;;;28.60;52.30;;;;;;5026422;28;20454;-80
2022/08/03 11:05:40;;;;;;;6.40;3.30;;;28.90;52.20;;;;;;5026296;28;20453;-80
2022/08/03 11:08:34;;;;;;;5.10;2.83;;;28.90;52.10;;;;;;5030356;28;20472;-80
2022/08/03 11:11:28;;;;;;;5.90;3.20;;;29.00;52.00;;;;;;5015798;28;20508;-81
2022/08/03 11:13:58;;;;;;;4.80;2.70;;;29.00;51.90;;;;;;5041202;28;20472;-80
2022/08/03 11:16:27;;;;;;;5.07;2.87;;;29.10;51.90;;;;;;5030579;28;20474;-80
2022/08/03 11:18:57;;;;;;;5.00;2.80;;;29.20;51.70;;;;;;5029475;28;20537;-80
2022/08/03 11:21:53;;;;;;;5.83;2.40;;;29.20;51.60;;;;;;5029752;28;20463;-80
2022/08/03 11:25:11;;;;;;;6.27;2.93;;;29.20;51.50;;;;;;5004946;28;20459;-80
2022/08/03 11:28:27;;;;;;;5.07;2.57;;;29.20;51.40;;;;;;5011403;28;20466;-80
2022/08/03 11:31:17;;;;;;;6.70;2.73;;;29.20;51.50;;;;;;5021026;28;20506;-80
2022/08/03 11:34:06;;;;;;;5.50;2.80;;;29.30;51.30;;;;;;5007797;28;20470;-80
2022/08/03 11:37:07;;;;;;;4.87;2.70;;;29.30;51.20;;;;;;5030970;28;21168;-80
2022/08/03 11:39:39;;;;;;;4.67;2.13;;;29.30;51.20;;;;;;5028393;28;20497;-80
2022/08/03 11:42:40;;;;;;;6.00;2.23;;;29.30;51.20;;;;;;5015052;28;20470;-80
2022/08/03 11:45:10;;;;;;;6.70;2.90;;;29.30;51.10;;;;;;5028057;28;20457;-81
2022/08/03 11:47:40;;;;;;;5.60;2.63;;;29.40;50.90;;;;;;5029595;28;20542;-80
2022/08/03 11:50:18;;;;;;;5.17;2.73;;;29.40;50.90;;;;;;5026917;28;20490;-80
2022/08/03 11:52:48;;;;;;;5.03;2.77;;;29.50;50.80;;;;;;5032434;28;20462;-80
2022/08/03 11:55:19;;;;;;;5.87;2.87;;;29.50;50.80;;;;;;5029453;28;20462;-80
2022/08/03 11:57:48;;;;;;;5.17;2.60;;;29.50;50.80;;;;;;5026001;28;20959;-80
2022/08/03 12:00:37;;;;;;;4.67;2.30;;;29.50;50.80;;;;;;5026237;28;20479;-80
2022/08/03 12:03:07;;;;;;;4.43;2.33;;;29.60;50.70;;;;;;5028511;28;20489;-81
2022/08/03 12:05:41;;;;;;;4.93;2.60;;;29.60;50.80;;;;;;5019136;28;20542;-80
2022/08/03 12:08:29;;;;;;;4.53;2.20;;;29.60;50.80;;;;;;5031760;28;21169;-80
2022/08/03 12:10:59;;;;;;;4.57;2.40;;;29.70;50.80;;;;;;5015669;28;20449;-80
2022/08/03 12:13:35;;;;;;;6.03;2.57;;;29.70;50.70;;;;;;5009225;28;20455;-81
2022/08/03 12:16:27;;;;;;;5.03;2.50;;;29.70;50.80;;;;;;5032262;28;20463;-80
2022/08/03 12:18:56;;;;;;;5.07;2.67;;;29.70;50.80;;;;;;5029158;28;20463;-80
2022/08/03 12:21:24;;;;;;;5.57;2.53;;;29.70;50.70;;;;;;5027894;28;20542;-80
2022/08/03 12:23:57;;;;;;;5.47;2.40;;;29.80;50.70;;;;;;5025247;28;20541;-80
2022/08/03 12:26:26;;;;;;;4.67;2.40;;;29.80;50.50;;;;;;5014318;28;20517;-80
2022/08/03 12:28:54;;;;;;;4.90;2.23;;;29.80;50.60;;;;;;5010010;28;21333;-80
2022/08/03 12:31:24;;;;;;;5.10;2.30;;;29.80;50.60;;;;;;5027340;28;20471;-80
2022/08/03 12:33:57;;;;;;;5.63;2.50;;;29.80;50.60;;;;;;5028093;28;20546;-81
2022/08/03 12:36:27;;;;;;;5.07;2.57;;;29.80;50.40;;;;;;5027898;28;20827;-78
2022/08/03 12:38:56;;;;;;;5.00;2.50;;;29.70;50.40;;;;;;5024128;28;20530;-79
2022/08/03 12:41:29;;;;;;;5.03;2.70;;;29.80;50.70;;;;;;5025325;28;20479;-79
2022/08/03 12:43:57;;;;;;;7.13;2.70;;;30.00;50.60;;;;;;5026325;28;20462;-79
2022/08/03 12:46:32;;;;;;;4.60;2.27;;;30.10;50.50;;;;;;5011996;28;20575;-79
2022/08/03 12:49:08;;;;;;;5.17;2.10;;;30.30;50.10;;;;;;5024083;28;20847;-79
2022/08/03 12:51:37;;;;;;;5.50;2.43;;;30.40;50.10;;;;;;5022935;28;20446;-79
2022/08/03 12:54:06;;;;;;;5.00;2.40;;;30.60;50.10;;;;;;5025464;28;20476;-79
2022/08/03 12:56:34;;;;;;;5.07;2.30;;;30.70;50.00;;;;;;5026373;28;20832;-79
2022/08/03 12:59:23;;;;;;;5.40;2.80;;;30.80;50.10;;;;;;5024569;28;20528;-78
2022/08/03 13:02:00;;;;;;;4.90;2.30;;;30.90;49.90;;;;;;5022493;28;20480;-79
2022/08/03 13:04:34;;;;;;;6.40;2.63;;;31.00;49.90;;;;;;5031353;28;20998;-79
2022/08/03 13:07:03;;;;;;;4.40;2.10;;;31.10;49.80;;;;;;5025806;28;20950;-79
2022/08/03 13:09:41;;;;;;;5.30;2.50;;;31.20;49.60;;;;;;5022150;28;20519;-79
2022/08/03 13:12:11;;;;;;;4.50;2.57;;;31.20;49.70;;;;;;5001666;28;20518;-78
2022/08/03 13:14:40;;;;;;;5.00;2.70;;;31.30;49.70;;;;;;5025219;28;20456;-78
2022/08/03 13:17:10;;;;;;;4.90;2.40;;;31.40;49.70;;;;;;5023356;28;20493;-79
2022/08/03 13:19:39;;;;;;;5.20;2.33;;;31.40;49.60;;;;;;5022348;28;20481;-78
2022/08/03 13:22:14;;;;;;;5.70;3.10;;;31.40;49.50;;;;;;5022314;28;20480;-78
2022/08/03 13:24:43;;;;;;;4.33;2.20;;;31.40;49.10;;;;;;5024925;28;20822;-78
2022/08/03 13:27:12;;;;;;;4.40;1.90;;;31.50;49.40;;;;;;5024152;28;20459;-78
2022/08/03 13:30:00;;;;;;;5.20;2.17;;;31.50;49.30;;;;;;5018395;28;21013;-78
2022/08/03 13:32:29;;;;;;;8.27;2.63;;;31.50;49.30;;;;;;5020042;28;21039;-78
2022/08/03 13:34:57;;;;;;;6.13;2.50;;;31.50;49.30;;;;;;5023114;28;20456;-79
2022/08/03 13:37:25;;;;;;;5.13;2.17;;;31.40;49.20;;;;;;5023374;28;21341;-78